Time;durP1;ratioP1;P1;durP2;ratioP2;P2;SDS_P1;SDS_P2;PMS_P1;PMS_P2;Temp;Humidity;BMP_temperature;BMP_pressure;BME280_temperature;BME280_humidity;BME280_pressure;Samples;Min_cycle;Max_cycle;Signal;HPM_P1;HPM_P2
2022/03/03 00:01:09;;;;;;;15.20;8.40;;;6.20;1.00;;;;;;5085697;28;20536;-81
2022/03/03 00:03:38;;;;;;;12.30;7.77;;;6.30;1.00;;;;;;5090609;28;20455;-81
2022/03/03 00:06:06;;;;;;;17.77;8.87;;;6.30;1.00;;;;;;5089684;28;20469;-79
2022/03/03 00:08:35;;;;;;;11.83;8.23;;;6.30;1.00;;;;;;5091387;28;20473;-80
2022/03/03 00:11:03;;;;;;;16.67;9.17;;;6.30;1.00;;;;;;5087011;28;20463;-82
2022/03/03 00:13:31;;;;;;;13.10;9.03;;;6.60;1.00;;;;;;5084520;28;21012;-81
2022/03/03 00:15:59;;;;;;;12.60;9.57;;;6.20;1.00;;;;;;5106136;28;20466;-81
2022/03/03 00:18:29;;;;;;;19.00;10.40;;;6.30;1.00;;;;;;5085351;28;20482;-81
2022/03/03 00:20:57;;;;;;;14.07;9.13;;;6.20;1.00;;;;;;5090194;28;20447;-81
2022/03/03 00:23:25;;;;;;;12.10;8.10;;;6.20;1.00;;;;;;5088994;28;20574;-81
2022/03/03 00:25:53;;;;;;;12.77;9.37;;;6.20;1.00;;;;;;5087354;28;20478;-81
2022/03/03 00:28:22;;;;;;;17.73;10.10;;;6.10;1.00;;;;;;5090583;28;20454;-79
2022/03/03 00:30:50;;;;;;;12.00;9.23;;;6.40;1.00;;;;;;5078725;28;20455;-80
2022/03/03 00:33:18;;;;;;;13.20;9.10;;;6.20;1.00;;;;;;5087392;28;20450;-80
2022/03/03 00:35:48;;;;;;;10.30;8.77;;;6.20;1.00;;;;;;5093582;28;20552;-79
2022/03/03 00:38:16;;;;;;;10.40;8.00;;;6.20;1.00;;;;;;5087710;28;20466;-80
2022/03/03 00:40:45;;;;;;;14.93;8.40;;;6.40;1.00;;;;;;5086813;28;20505;-80
2022/03/03 00:43:13;;;;;;;13.23;9.17;;;6.00;1.00;;;;;;5093521;28;20450;-80
2022/03/03 00:45:41;;;;;;;11.93;8.37;;;5.90;1.00;;;;;;5096135;28;20469;-80
2022/03/03 00:48:09;;;;;;;13.00;8.43;;;5.90;1.00;;;;;;5086454;28;20480;-79
2022/03/03 00:50:38;;;;;;;13.10;8.07;;;6.30;1.00;;;;;;5083323;28;20520;-79
2022/03/03 00:53:07;;;;;;;15.90;9.70;;;6.00;1.00;;;;;;5086123;28;20437;-79
2022/03/03 00:55:35;;;;;;;11.40;8.60;;;6.00;1.00;;;;;;5090918;28;20473;-79
2022/03/03 00:58:04;;;;;;;13.40;9.30;;;6.00;1.00;;;;;;5092968;28;20964;-79
2022/03/03 01:00:32;;;;;;;14.50;8.50;;;6.00;1.00;;;;;;5083191;28;20465;-79
2022/03/03 01:03:00;;;;;;;12.63;8.30;;;6.00;1.00;;;;;;5088489;28;21294;-80
2022/03/03 01:05:29;;;;;;;11.53;7.73;;;6.00;1.00;;;;;;5087435;28;20478;-79
2022/03/03 01:07:57;;;;;;;12.13;8.43;;;6.00;1.00;;;;;;5086244;28;20491;-80
2022/03/03 01:10:27;;;;;;;13.83;8.10;;;6.30;1.00;;;;;;5084320;28;20460;-79
2022/03/03 01:12:55;;;;;;;13.67;8.73;;;6.00;1.00;;;;;;5085544;28;20487;-79
2022/03/03 01:15:23;;;;;;;16.63;10.20;;;5.80;1.00;;;;;;5091400;28;21057;-79
2022/03/03 01:17:51;;;;;;;12.53;8.70;;;5.90;1.00;;;;;;5088160;28;20465;-78
2022/03/03 01:20:20;;;;;;;14.60;9.10;;;5.90;1.00;;;;;;5081369;28;21426;-78
2022/03/03 01:22:48;;;;;;;13.40;8.37;;;5.90;1.00;;;;;;5090842;28;20453;-78
2022/03/03 01:25:17;;;;;;;15.60;9.57;;;6.30;1.00;;;;;;5090655;28;20477;-78
2022/03/03 01:27:46;;;;;;;14.20;9.90;;;5.90;1.00;;;;;;5091205;28;20449;-78
2022/03/03 01:30:14;;;;;;;17.20;11.73;;;5.90;1.00;;;;;;5085321;28;20473;-79
2022/03/03 01:32:42;;;;;;;18.00;11.80;;;5.70;1.00;;;;;;5085079;28;20450;-79
2022/03/03 01:35:11;;;;;;;14.07;10.30;;;6.00;1.00;;;;;;5093425;28;21017;-78
2022/03/03 01:37:39;;;;;;;14.60;10.03;;;5.80;1.00;;;;;;5091587;28;21030;-79
2022/03/03 01:40:08;;;;;;;15.30;9.10;;;5.80;1.00;;;;;;5088578;28;20464;-79
2022/03/03 01:42:37;;;;;;;14.63;9.37;;;5.60;1.00;;;;;;5089397;28;20450;-80
2022/03/03 01:45:07;;;;;;;15.43;10.07;;;5.60;1.00;;;;;;5089646;28;20477;-81
2022/03/03 01:47:36;;;;;;;15.70;9.20;;;5.60;1.00;;;;;;5089461;28;20830;-79
2022/03/03 01:50:05;;;;;;;15.20;10.53;;;5.70;1.00;;;;;;5088455;28;21280;-80
2022/03/03 01:52:33;;;;;;;17.53;9.10;;;5.70;1.00;;;;;;5089732;28;20449;-79
2022/03/03 01:55:02;;;;;;;14.03;9.30;;;5.90;1.00;;;;;;5088643;28;20482;-80
2022/03/03 01:57:31;;;;;;;12.20;8.07;;;5.60;1.00;;;;;;5084161;28;20464;-82
2022/03/03 01:59:59;;;;;;;13.37;8.83;;;5.60;1.00;;;;;;5089521;28;20473;-80
2022/03/03 02:02:29;;;;;;;15.40;8.07;;;5.60;1.00;;;;;;5091051;28;20506;-81
2022/03/03 02:04:57;;;;;;;11.75;8.88;;;5.70;1.00;;;;;;5100077;27;21040;-79
2022/03/03 02:07:26;;;;;;;13.23;11.13;;;5.80;1.00;;;;;;5089062;28;20222;-78
2022/03/03 02:09:54;;;;;;;111.03;29.63;;;6.10;1.00;;;;;;5089575;28;20450;-80
2022/03/03 02:12:22;;;;;;;184.50;53.00;;;5.90;1.00;;;;;;5090629;28;20454;-80
2022/03/03 02:14:51;;;;;;;70.60;24.27;;;5.90;1.00;;;;;;5092139;28;20841;-79
2022/03/03 02:17:19;;;;;;;24.70;14.13;;;5.80;1.00;;;;;;5090156;28;20454;-79
2022/03/03 02:19:49;;;;;;;13.37;9.03;;;5.70;1.00;;;;;;5080422;28;20483;-80
2022/03/03 02:22:18;;;;;;;17.33;9.27;;;5.60;1.00;;;;;;5082798;28;20450;-81
2022/03/03 02:24:46;;;;;;;13.13;7.80;;;5.90;1.00;;;;;;5079627;28;20469;-80
2022/03/03 02:27:14;;;;;;;13.07;8.20;;;5.70;1.00;;;;;;5084425;28;20458;-80
2022/03/03 02:29:43;;;;;;;14.13;9.30;;;5.50;1.00;;;;;;5079616;28;20198;-80
2022/03/03 02:32:11;;;;;;;11.73;8.97;;;5.50;1.00;;;;;;5089587;28;20454;-79
2022/03/03 02:34:47;;;;;;;11.40;7.40;;;5.50;1.00;;;;;;5088527;28;21294;-81
2022/03/03 02:37:16;;;;;;;11.70;8.03;;;5.50;1.00;;;;;;5089201;28;20450;-80
2022/03/03 02:39:46;;;;;;;14.17;9.10;;;5.40;1.00;;;;;;5089407;28;20523;-81
2022/03/03 02:42:14;;;;;;;9.70;7.37;;;5.50;1.00;;;;;;5085289;28;20541;-80
2022/03/03 02:44:42;;;;;;;12.70;8.20;;;5.40;1.00;;;;;;5089690;28;20470;-79
2022/03/03 02:47:10;;;;;;;10.90;8.67;;;5.50;1.00;;;;;;5089236;28;20449;-80
2022/03/03 02:49:38;;;;;;;12.00;7.53;;;5.50;1.00;;;;;;5078853;28;20458;-79
2022/03/03 02:52:07;;;;;;;12.00;8.10;;;5.40;1.00;;;;;;5084673;28;20458;-81
2022/03/03 02:54:35;;;;;;;10.83;7.67;;;5.30;1.00;;;;;;5087421;28;20473;-79
2022/03/03 02:59:51;;;;;;;13.33;8.03;;;5.40;1.00;;;;;;5110192;28;20477;-79
2022/03/03 03:02:20;;;;;;;13.83;8.07;;;5.30;1.00;;;;;;5080709;28;20488;-80
2022/03/03 03:04:48;;;;;;;12.03;8.20;;;5.50;1.00;;;;;;5084398;28;20466;-78
2022/03/03 03:07:16;;;;;;;11.33;7.50;;;5.50;1.00;;;;;;5079977;28;20476;-79
2022/03/03 03:09:44;;;;;;;16.70;8.60;;;5.50;1.00;;;;;;5084140;28;20456;-78
2022/03/03 03:12:14;;;;;;;11.20;8.20;;;5.60;1.00;;;;;;5080655;28;20450;-80
2022/03/03 03:14:42;;;;;;;12.05;7.40;;;5.30;1.00;;;;;;5089360;28;20469;-79
2022/03/03 03:17:10;;;;;;;15.00;8.80;;;5.20;1.00;;;;;;5089798;28;20203;-79
2022/03/03 03:19:38;;;;;;;10.67;8.33;;;5.20;1.00;;;;;;5093505;28;20983;-79
2022/03/03 03:22:07;;;;;;;15.13;9.27;;;5.30;1.00;;;;;;5089416;28;20449;-81
2022/03/03 03:24:35;;;;;;;12.53;8.20;;;5.30;1.00;;;;;;5090535;28;21019;-79
2022/03/03 03:27:03;;;;;;;16.60;7.33;;;5.30;1.00;;;;;;5091453;28;20445;-81
2022/03/03 03:29:33;;;;;;;14.67;9.13;;;5.30;1.00;;;;;;5092086;28;20454;-81
2022/03/03 03:32:01;;;;;;;13.70;8.17;;;5.40;1.00;;;;;;5096374;28;20468;-80
2022/03/03 03:34:29;;;;;;;13.43;9.17;;;5.30;1.00;;;;;;5088529;28;20485;-80
2022/03/03 03:36:58;;;;;;;15.93;9.45;;;5.30;1.00;;;;;;5089391;28;20504;-80
2022/03/03 03:39:26;;;;;;;13.83;9.23;;;5.30;1.00;;;;;;5092576;28;20899;-79
2022/03/03 03:41:54;;;;;;;11.13;7.80;;;5.30;1.00;;;;;;5091318;28;20957;-79
2022/03/03 03:44:23;;;;;;;13.13;7.87;;;5.30;1.00;;;;;;5086242;28;20455;-79
2022/03/03 03:46:52;;;;;;;10.90;7.00;;;5.40;1.00;;;;;;5086656;28;20450;-79
2022/03/03 03:49:21;;;;;;;10.90;7.87;;;5.20;1.00;;;;;;5089722;28;20441;-79
2022/03/03 03:51:49;;;;;;;10.70;8.37;;;5.20;1.00;;;;;;5084844;28;20468;-79
2022/03/03 03:54:17;;;;;;;15.23;10.00;;;5.20;1.00;;;;;;5082068;28;20438;-78
2022/03/03 03:56:45;;;;;;;11.82;7.93;;;5.30;1.00;;;;;;5085073;28;20790;-79
2022/03/03 03:59:13;;;;;;;12.50;8.83;;;5.20;1.00;;;;;;5086415;28;20200;-78
2022/03/03 04:01:42;;;;;;;15.43;8.47;;;5.40;1.00;;;;;;5092020;28;20487;-78
2022/03/03 04:04:12;;;;;;;10.90;7.13;;;5.20;1.00;;;;;;5094077;28;20528;-79
2022/03/03 04:06:41;;;;;;;15.45;8.75;;;5.20;1.00;;;;;;5084632;28;20442;-79
2022/03/03 04:09:09;;;;;;;15.47;8.90;;;5.00;1.00;;;;;;5093688;28;20199;-79
2022/03/03 04:11:37;;;;;;;8.67;7.20;;;4.90;1.00;;;;;;5095039;28;20487;-78
2022/03/03 04:14:06;;;;;;;11.40;8.10;;;5.00;1.00;;;;;;5088818;28;20444;-79
2022/03/03 04:16:35;;;;;;;8.97;8.03;;;5.00;1.00;;;;;;5093743;28;20215;-79
2022/03/03 04:19:03;;;;;;;10.18;7.53;;;4.90;1.00;;;;;;5091298;28;20468;-78
2022/03/03 04:21:33;;;;;;;11.60;7.70;;;4.90;1.00;;;;;;5092212;28;20900;-80
2022/03/03 04:24:01;;;;;;;10.60;6.70;;;4.90;1.00;;;;;;5093587;28;20853;-80
2022/03/03 04:26:29;;;;;;;12.50;7.60;;;5.00;1.00;;;;;;5089244;28;20503;-80
2022/03/03 04:28:57;;;;;;;9.80;7.57;;;5.00;1.00;;;;;;5110218;27;20507;-80
2022/03/03 04:31:26;;;;;;;15.40;8.90;;;5.30;1.00;;;;;;5090231;28;20440;-80
2022/03/03 04:33:55;;;;;;;11.05;9.02;;;4.90;1.00;;;;;;5083901;28;20578;-79
2022/03/03 04:36:23;;;;;;;14.77;8.10;;;4.80;1.00;;;;;;5084225;28;20227;-83
2022/03/03 04:38:52;;;;;;;11.30;7.18;;;4.80;1.00;;;;;;5083874;28;21873;-82
2022/03/03 04:41:21;;;;;;;14.43;8.53;;;4.80;1.00;;;;;;5085592;28;20215;-81
2022/03/03 04:43:49;;;;;;;10.80;7.40;;;4.70;1.00;;;;;;5078176;28;20623;-80
2022/03/03 04:46:18;;;;;;;12.35;7.95;;;5.10;1.00;;;;;;5088295;28;20518;-80
2022/03/03 04:48:46;;;;;;;15.75;9.02;;;4.70;1.00;;;;;;5091714;28;20287;-80
2022/03/03 04:51:14;;;;;;;13.00;7.85;;;4.70;1.00;;;;;;5094869;28;20204;-78
2022/03/03 04:53:42;;;;;;;14.25;8.63;;;4.70;1.00;;;;;;5092218;28;20222;-80
2022/03/03 04:56:12;;;;;;;14.70;7.80;;;4.70;1.00;;;;;;5088757;28;20220;-80
2022/03/03 04:58:40;;;;;;;15.88;8.82;;;4.80;1.00;;;;;;5091190;28;20202;-80
2022/03/03 05:01:08;;;;;;;13.43;8.90;;;5.20;1.00;;;;;;5095052;28;20214;-81
2022/03/03 05:03:36;;;;;;;13.50;8.55;;;4.80;1.00;;;;;;5090522;28;20454;-80
2022/03/03 05:06:05;;;;;;;11.17;8.10;;;4.90;1.00;;;;;;5095317;28;20219;-80
2022/03/03 05:08:33;;;;;;;10.45;8.13;;;4.80;1.00;;;;;;5091243;28;20472;-81
2022/03/03 05:11:01;;;;;;;11.60;8.25;;;4.80;1.00;;;;;;5091740;28;20197;-80
2022/03/03 05:13:31;;;;;;;10.35;7.72;;;4.80;1.00;;;;;;5080860;28;20200;-80
2022/03/03 05:15:59;;;;;;;11.75;7.82;;;4.90;1.00;;;;;;5092028;28;20583;-80
2022/03/03 05:18:27;;;;;;;13.38;7.80;;;4.90;1.00;;;;;;5090475;28;20258;-79
2022/03/03 05:20:56;;;;;;;14.38;8.65;;;5.20;1.00;;;;;;5086894;28;20228;-79
2022/03/03 05:23:24;;;;;;;13.88;7.03;;;4.90;1.00;;;;;;5091346;28;20192;-78
2022/03/03 05:25:52;;;;;;;12.05;7.70;;;4.80;1.00;;;;;;5092804;28;20308;-78
2022/03/03 05:28:21;;;;;;;15.80;7.45;;;4.70;1.00;;;;;;5095694;28;20204;-78
2022/03/03 05:30:50;;;;;;;10.23;6.57;;;4.70;1.00;;;;;;5087953;28;20275;-79
2022/03/03 05:33:20;;;;;;;12.18;9.13;;;4.70;1.00;;;;;;5090108;28;20201;-79
2022/03/03 05:35:49;;;;;;;10.82;7.85;;;4.60;1.00;;;;;;5091680;28;20216;-80
2022/03/03 05:38:18;;;;;;;11.65;7.90;;;4.50;1.00;;;;;;5089437;28;20206;-80
2022/03/03 05:40:46;;;;;;;14.07;7.73;;;4.50;1.00;;;;;;5087916;28;20576;-80
2022/03/03 05:43:14;;;;;;;10.85;7.15;;;4.50;1.00;;;;;;5085777;28;20995;-80
2022/03/03 05:45:43;;;;;;;10.85;7.75;;;4.40;1.00;;;;;;5088924;28;20219;-81
2022/03/03 05:48:17;;;;;;;12.02;7.95;;;4.50;1.00;;;;;;5096604;28;20248;-81
2022/03/03 05:50:45;;;;;;;13.43;7.60;;;4.80;1.00;;;;;;5079977;28;20193;-81
2022/03/03 05:53:14;;;;;;;9.57;7.50;;;4.50;1.00;;;;;;5094675;27;20217;-79
2022/03/03 05:55:45;;;;;;;10.98;7.57;;;4.50;1.00;;;;;;5087028;28;20548;-79
2022/03/03 05:58:16;;;;;;;11.55;8.73;;;4.50;1.00;;;;;;5084758;28;20187;-80
2022/03/03 06:00:45;;;;;;;13.60;6.85;;;4.40;1.00;;;;;;5090200;28;20221;-80
2022/03/03 06:03:17;;;;;;;11.43;8.40;;;4.50;1.00;;;;;;5085875;28;20698;-80
2022/03/03 06:05:50;;;;;;;14.82;11.10;;;4.50;1.00;;;;;;5080476;28;20247;-80
2022/03/03 06:08:23;;;;;;;16.48;12.55;;;4.60;1.00;;;;;;5095371;28;20191;-80
2022/03/03 06:10:53;;;;;;;16.85;12.20;;;4.60;1.00;;;;;;5093226;28;20825;-80
2022/03/03 06:13:24;;;;;;;14.40;10.32;;;4.70;1.00;;;;;;5080734;28;20274;-79
2022/03/03 06:15:53;;;;;;;15.15;11.20;;;4.40;1.00;;;;;;5086668;28;20215;-80
2022/03/03 06:18:26;;;;;;;11.57;10.03;;;4.40;1.00;;;;;;5085514;28;20197;-79
2022/03/03 06:20:55;;;;;;;15.03;10.70;;;4.60;1.00;;;;;;5088032;28;20475;-79
2022/03/03 06:23:23;;;;;;;13.13;9.55;;;4.60;1.00;;;;;;5088564;28;20453;-79
2022/03/03 06:26:00;;;;;;;16.52;9.50;;;4.30;1.00;;;;;;5088812;28;20716;-80
2022/03/03 06:28:29;;;;;;;13.75;9.18;;;4.30;1.00;;;;;;5088247;28;20195;-79
2022/03/03 06:30:57;;;;;;;10.73;8.52;;;4.50;1.00;;;;;;5088708;28;20192;-79
2022/03/03 06:33:27;;;;;;;12.85;9.82;;;4.40;1.00;;;;;;5078652;28;20446;-82
2022/03/03 06:35:55;;;;;;;11.00;9.23;;;4.50;1.00;;;;;;5083504;28;20223;-81
2022/03/03 06:38:24;;;;;;;13.50;9.30;;;4.60;1.00;;;;;;5081797;28;20462;-79
2022/03/03 06:40:53;;;;;;;13.20;8.63;;;4.70;1.00;;;;;;5076649;28;20268;-78
2022/03/03 06:43:22;;;;;;;12.50;9.20;;;4.40;1.00;;;;;;5079573;28;20195;-80
2022/03/03 06:45:50;;;;;;;12.70;8.98;;;4.40;1.00;;;;;;5084106;28;20467;-79
2022/03/03 06:48:19;;;;;;;14.27;8.87;;;4.40;1.00;;;;;;5085176;28;20196;-79
2022/03/03 06:50:51;;;;;;;13.30;9.70;;;4.50;1.00;;;;;;5085051;28;20455;-77
2022/03/03 06:53:26;;;;;;;13.45;8.70;;;4.60;1.00;;;;;;5085045;28;20201;-77
2022/03/03 06:55:57;;;;;;;13.80;8.55;;;4.60;1.00;;;;;;5088466;28;20230;-78
2022/03/03 06:58:26;;;;;;;11.27;8.80;;;4.60;1.00;;;;;;5082491;28;20203;-80
2022/03/03 07:00:55;;;;;;;14.00;8.75;;;4.90;1.00;;;;;;5080320;28;20220;-77
2022/03/03 07:03:25;;;;;;;18.67;9.50;;;4.70;1.00;;;;;;5083932;28;20200;-79
2022/03/03 07:05:54;;;;;;;20.10;10.27;;;4.70;1.00;;;;;;5085422;28;20217;-78
2022/03/03 07:08:22;;;;;;;11.50;8.50;;;4.70;1.00;;;;;;5083914;28;22639;-78
2022/03/03 07:10:52;;;;;;;12.52;9.02;;;4.70;1.00;;;;;;5085528;28;20209;-78
2022/03/03 07:13:20;;;;;;;15.35;9.60;;;4.70;1.00;;;;;;5082960;28;20797;-78
2022/03/03 07:15:50;;;;;;;13.77;8.67;;;5.10;1.00;;;;;;5078255;28;20216;-77
2022/03/03 07:18:20;;;;;;;12.20;8.60;;;5.00;1.00;;;;;;5085474;28;20438;-78
2022/03/03 07:21:03;;;;;;;15.98;10.25;;;5.10;1.00;;;;;;5083361;28;20203;-78
2022/03/03 07:23:36;;;;;;;17.25;12.27;;;5.50;1.00;;;;;;5082300;28;20460;-78
2022/03/03 07:26:07;;;;;;;21.73;11.17;;;5.40;1.00;;;;;;5076265;28;20223;-78
2022/03/03 07:28:39;;;;;;;16.10;10.80;;;5.40;1.00;;;;;;5086155;28;21060;-78
2022/03/03 07:31:08;;;;;;;15.27;8.87;;;5.40;1.00;;;;;;5087212;28;20442;-78
2022/03/03 07:33:48;;;;;;;16.97;10.30;;;5.50;1.00;;;;;;5084984;28;20450;-78
2022/03/03 07:36:24;;;;;;;15.67;9.17;;;5.60;1.00;;;;;;5089681;28;20466;-78
2022/03/03 07:39:02;;;;;;;15.07;9.70;;;5.90;1.00;;;;;;5084905;28;20448;-79
2022/03/03 07:41:30;;;;;;;21.05;13.73;;;5.80;1.00;;;;;;5077364;28;20803;-77
2022/03/03 07:44:00;;;;;;;15.07;10.10;;;5.70;1.00;;;;;;5080574;28;20195;-78
2022/03/03 07:46:29;;;;;;;16.30;10.13;;;5.80;1.00;;;;;;5080794;28;20503;-78
2022/03/03 07:48:58;;;;;;;12.63;9.53;;;5.90;1.00;;;;;;5080927;28;20454;-78
2022/03/03 07:51:27;;;;;;;16.90;10.90;;;6.00;1.00;;;;;;5080051;28;20461;-76
2022/03/03 07:53:56;;;;;;;17.67;10.43;;;6.00;1.00;;;;;;5081055;28;20200;-77
2022/03/03 07:56:28;;;;;;;14.97;9.53;;;6.10;1.00;;;;;;5081666;28;20473;-77
2022/03/03 07:59:04;;;;;;;12.77;10.20;;;6.60;1.00;;;;;;5082248;28;20460;-76
2022/03/03 08:01:35;;;;;;;17.13;9.67;;;6.40;1.00;;;;;;5084210;28;20488;-78
2022/03/03 08:04:03;;;;;;;13.60;10.40;;;6.50;1.00;;;;;;5085216;28;20455;-77
2022/03/03 08:06:33;;;;;;;18.00;9.70;;;6.60;1.00;;;;;;5086308;28;20476;-77
2022/03/03 08:09:02;;;;;;;12.53;10.47;;;6.70;1.00;;;;;;5082309;28;20549;-78
2022/03/03 08:11:30;;;;;;;14.13;10.33;;;6.80;1.00;;;;;;5080262;28;20457;-76
2022/03/03 08:13:59;;;;;;;16.00;10.77;;;7.00;1.00;;;;;;5086828;28;20454;-78
2022/03/03 08:16:27;;;;;;;19.10;10.90;;;7.20;1.00;;;;;;5081824;28;20483;-78
2022/03/03 08:18:57;;;;;;;17.52;11.38;;;7.50;1.00;;;;;;5081964;28;20441;-77
2022/03/03 08:21:26;;;;;;;20.93;9.80;;;7.50;1.00;;;;;;5087727;28;20240;-78
2022/03/03 08:23:56;;;;;;;17.90;11.97;;;7.70;1.00;;;;;;5084758;28;20453;-79
2022/03/03 08:26:25;;;;;;;16.80;11.20;;;7.90;1.00;;;;;;5080978;28;20467;-78
2022/03/03 08:28:53;;;;;;;18.17;11.27;;;8.10;1.00;;;;;;5086508;28;20456;-78
2022/03/03 08:31:28;;;;;;;15.77;10.53;;;8.60;1.00;;;;;;5089337;28;20866;-80
2022/03/03 08:34:02;;;;;;;17.50;11.40;;;8.50;1.00;;;;;;5083011;28;20503;-78
2022/03/03 08:36:35;;;;;;;15.63;10.90;;;8.60;1.00;;;;;;5084247;28;20468;-78
2022/03/03 08:39:07;;;;;;;17.40;11.67;;;8.80;1.00;;;;;;5084584;28;20464;-77
2022/03/03 08:41:38;;;;;;;17.30;11.10;;;9.00;1.00;;;;;;5081585;28;20472;-75
2022/03/03 08:44:08;;;;;;;17.40;11.30;;;9.10;1.00;;;;;;5086671;28;20457;-79
2022/03/03 08:46:39;;;;;;;14.83;10.60;;;9.30;1.00;;;;;;5089644;28;20525;-77
2022/03/03 08:49:09;;;;;;;15.50;10.60;;;9.40;1.00;;;;;;5090553;28;20503;-79
2022/03/03 08:51:38;;;;;;;16.57;11.17;;;9.50;1.00;;;;;;5080192;28;20460;-78
2022/03/03 08:54:08;;;;;;;16.33;10.80;;;9.90;1.00;;;;;;5089573;28;20960;-79
2022/03/03 08:56:36;;;;;;;17.30;10.50;;;9.80;1.00;;;;;;5087104;28;20817;-79
2022/03/03 08:59:04;;;;;;;18.35;10.60;;;10.00;1.00;;;;;;5083905;28;21284;-80
2022/03/03 09:01:33;;;;;;;14.03;10.13;;;10.10;1.00;;;;;;5083579;28;20204;-81
2022/03/03 09:04:06;;;;;;;15.33;10.13;;;10.30;1.00;;;;;;5085572;28;20482;-80
2022/03/03 09:06:35;;;;;;;12.90;10.13;;;10.60;1.00;;;;;;5089183;28;20473;-79
2022/03/03 09:09:03;;;;;;;17.97;11.03;;;10.80;1.00;;;;;;5082861;28;20448;-81
2022/03/03 09:11:33;;;;;;;18.70;11.20;;;10.90;1.00;;;;;;5083108;28;20449;-81
2022/03/03 09:14:01;;;;;;;13.20;9.43;;;11.10;1.00;;;;;;5082093;28;20438;-80
2022/03/03 09:16:30;;;;;;;19.60;12.77;;;11.30;1.00;;;;;;5090829;28;20568;-80
2022/03/03 09:18:58;;;;;;;18.37;10.97;;;11.40;1.00;;;;;;5103447;28;20489;-79
2022/03/03 09:21:28;;;;;;;14.40;10.30;;;11.60;1.00;;;;;;5082295;28;20470;-79
2022/03/03 09:23:56;;;;;;;12.93;9.43;;;11.70;1.00;;;;;;5081106;28;20838;-80
2022/03/03 09:26:25;;;;;;;18.50;12.25;;;11.90;1.00;;;;;;5084497;28;20452;-80
2022/03/03 09:28:54;;;;;;;13.70;10.50;;;12.10;1.00;;;;;;5083870;28;20223;-80
2022/03/03 09:31:22;;;;;;;15.60;10.20;;;12.40;1.00;;;;;;5078704;28;20432;-81
2022/03/03 09:33:51;;;;;;;17.10;11.40;;;12.50;1.00;;;;;;5095798;28;20481;-80
2022/03/03 09:36:19;;;;;;;18.13;11.27;;;12.80;1.00;;;;;;5091148;28;20511;-80
2022/03/03 09:38:48;;;;;;;17.13;11.50;;;12.90;1.00;;;;;;5090390;28;20449;-81
2022/03/03 09:41:16;;;;;;;18.00;10.93;;;13.00;1.00;;;;;;5090317;28;20460;-81
2022/03/03 09:43:45;;;;;;;18.20;10.53;;;13.20;1.00;;;;;;5086875;28;21003;-82
2022/03/03 09:46:14;;;;;;;19.03;10.80;;;13.50;1.00;;;;;;5094614;27;20467;-81
2022/03/03 09:48:42;;;;;;;15.00;11.13;;;13.50;1.00;;;;;;5105116;27;20812;-78
2022/03/03 09:51:11;;;;;;;14.27;10.20;;;13.60;1.00;;;;;;5088694;28;20516;-80
2022/03/03 09:53:41;;;;;;;16.33;11.73;;;13.80;1.00;;;;;;5083278;28;20444;-80
2022/03/03 09:56:09;;;;;;;13.30;10.03;;;14.00;1.00;;;;;;5077940;28;20464;-81
2022/03/03 09:58:38;;;;;;;15.70;10.67;;;14.10;1.00;;;;;;5075572;28;20441;-81
2022/03/03 10:01:07;;;;;;;15.30;11.33;;;14.30;1.00;;;;;;5084688;28;20828;-81
2022/03/03 10:03:37;;;;;;;14.80;11.40;;;14.40;1.00;;;;;;5080365;28;20476;-80
2022/03/03 10:06:06;;;;;;;16.80;11.20;;;14.50;2.20;;;;;;5094009;28;20995;-83
2022/03/03 10:08:36;;;;;;;16.50;10.73;;;14.50;2.30;;;;;;5086897;28;20480;-81
2022/03/03 10:11:05;;;;;;;13.43;10.73;;;14.60;2.60;;;;;;5075817;28;20449;-83
2022/03/03 10:13:46;;;;;;;17.27;11.10;;;15.00;4.70;;;;;;5082593;28;20224;-83
2022/03/03 10:16:20;;;;;;;13.82;10.65;;;15.00;5.10;;;;;;5073568;28;20444;-82
2022/03/03 10:19:01;;;;;;;14.00;10.20;;;15.20;4.10;;;;;;5075562;28;20211;-81
2022/03/03 10:21:30;;;;;;;15.83;9.70;;;15.20;1.80;;;;;;5082873;28;20465;-80
2022/03/03 10:23:59;;;;;;;19.10;11.33;;;15.20;2.10;;;;;;5084408;28;20971;-83
2022/03/03 10:26:38;;;;;;;13.30;10.30;;;15.10;3.50;;;;;;5084823;28;20469;-81
2022/03/03 10:29:16;;;;;;;15.10;11.20;;;15.30;3.40;;;;;;5080944;28;20561;-81
2022/03/03 10:31:49;;;;;;;15.97;10.27;;;15.30;3.20;;;;;;5076228;28;21091;-80
2022/03/03 10:34:20;;;;;;;14.87;10.27;;;15.40;4.00;;;;;;5075812;28;20452;-80
2022/03/03 10:36:59;;;;;;;14.50;9.60;;;15.60;4.10;;;;;;5085261;28;20450;-84
2022/03/03 10:39:39;;;;;;;15.47;11.03;;;15.70;5.40;;;;;;5084795;28;20895;-82
2022/03/03 10:42:14;;;;;;;14.00;9.63;;;15.90;6.90;;;;;;5081531;28;20450;-81
2022/03/03 10:44:43;;;;;;;16.43;10.53;;;16.10;9.10;;;;;;5078422;28;21024;-81
2022/03/03 10:47:13;;;;;;;17.50;10.67;;;16.40;12.50;;;;;;5071528;28;20445;-81
2022/03/03 10:49:44;;;;;;;15.53;10.30;;;16.50;12.40;;;;;;5081765;28;20491;-80
2022/03/03 10:52:16;;;;;;;13.93;11.00;;;16.80;13.20;;;;;;5081217;28;20446;-80
2022/03/03 10:54:52;;;;;;;18.30;12.30;;;16.90;14.60;;;;;;5081360;28;20539;-79
2022/03/03 10:57:35;;;;;;;12.70;10.80;;;17.00;16.20;;;;;;5083307;28;20453;-79
2022/03/03 11:00:08;;;;;;;13.77;10.40;;;17.20;17.00;;;;;;5084953;28;20446;-79
2022/03/03 11:02:38;;;;;;;15.17;11.13;;;17.50;19.60;;;;;;5085961;28;20455;-79
2022/03/03 11:05:10;;;;;;;15.17;11.30;;;17.60;20.80;;;;;;5081517;28;20499;-79
2022/03/03 11:07:41;;;;;;;14.67;11.80;;;17.70;20.10;;;;;;5082662;28;20453;-80
2022/03/03 11:10:10;;;;;;;17.90;12.33;;;17.60;19.80;;;;;;5084039;28;20464;-79
2022/03/03 11:12:39;;;;;;;14.80;11.70;;;17.80;21.80;;;;;;5084687;28;20464;-79
2022/03/03 11:15:08;;;;;;;16.23;12.80;;;18.00;23.70;;;;;;5079456;28;20473;-80
2022/03/03 11:17:37;;;;;;;17.13;12.60;;;18.30;25.80;;;;;;5084196;28;20464;-74
2022/03/03 11:20:10;;;;;;;20.13;14.30;;;18.50;27.50;;;;;;5077938;28;20495;-79
2022/03/03 11:22:40;;;;;;;17.67;13.70;;;18.60;28.00;;;;;;5082653;28;20441;-80
2022/03/03 11:25:10;;;;;;;16.67;13.40;;;18.50;27.80;;;;;;5082834;28;20901;-79
2022/03/03 11:27:39;;;;;;;17.00;13.70;;;18.50;27.00;;;;;;5083791;28;20743;-80
2022/03/03 11:30:17;;;;;;;16.80;12.77;;;18.70;27.40;;;;;;5082654;28;20446;-81
2022/03/03 11:32:46;;;;;;;17.43;13.97;;;18.80;29.40;;;;;;5090784;28;20445;-78
2022/03/03 11:35:16;;;;;;;16.60;14.80;;;18.90;30.10;;;;;;5083342;28;20450;-81
2022/03/03 11:37:46;;;;;;;19.03;14.63;;;19.40;36.00;;;;;;5093738;28;20200;-81
2022/03/03 11:40:19;;;;;;;17.63;13.90;;;18.90;29.90;;;;;;5080287;28;20458;-81
2022/03/03 11:42:49;;;;;;;17.57;13.87;;;18.40;24.80;;;;;;5088724;28;20465;-81
2022/03/03 11:45:21;;;;;;;19.50;13.80;;;18.00;21.60;;;;;;5085589;28;20492;-79
2022/03/03 11:47:50;;;;;;;19.67;13.70;;;17.60;18.30;;;;;;5084610;28;20476;-80
2022/03/03 11:50:25;;;;;;;16.17;11.87;;;17.30;15.50;;;;;;5089152;28;20744;-81
2022/03/03 11:53:15;;;;;;;19.77;13.57;;;17.10;15.50;;;;;;5092551;28;21028;-81
2022/03/03 11:55:46;;;;;;;16.70;13.10;;;17.10;16.10;;;;;;5085312;28;20473;-80
2022/03/03 11:58:16;;;;;;;18.30;13.30;;;16.80;12.30;;;;;;5083573;28;20461;-80
2022/03/03 12:00:46;;;;;;;18.97;13.70;;;16.60;11.80;;;;;;5087782;28;20887;-79
2022/03/03 12:03:17;;;;;;;21.10;13.60;;;16.30;8.20;;;;;;5090283;28;20648;-79
2022/03/03 12:05:48;;;;;;;17.57;13.03;;;16.10;6.30;;;;;;5087315;28;20560;-80
2022/03/03 12:08:34;;;;;;;20.63;14.93;;;16.10;6.80;;;;;;5084201;28;20479;-79
2022/03/03 12:11:05;;;;;;;19.93;14.03;;;15.90;4.50;;;;;;5082522;28;20456;-80
2022/03/03 12:13:43;;;;;;;16.73;11.87;;;15.90;3.60;;;;;;5087966;28;20452;-80
2022/03/03 12:16:17;;;;;;;14.40;11.97;;;15.90;5.70;;;;;;5082888;28;20472;-79
2022/03/03 12:18:47;;;;;;;19.73;11.93;;;16.00;5.90;;;;;;5086209;28;20472;-80
2022/03/03 12:21:28;;;;;;;20.53;13.20;;;16.00;6.20;;;;;;5090861;28;20456;-80
2022/03/03 12:24:35;;;;;;;21.13;13.30;;;16.10;6.10;;;;;;5085696;28;20483;-81
2022/03/03 12:27:18;;;;;;;19.97;12.83;;;16.00;5.10;;;;;;5085690;28;20460;-82
2022/03/03 12:29:51;;;;;;;18.30;12.27;;;16.00;5.10;;;;;;5085600;28;21159;-82
2022/03/03 12:32:41;;;;;;;17.43;10.67;;;16.00;6.00;;;;;;5081423;28;20515;-80
2022/03/03 12:35:13;;;;;;;20.87;12.73;;;16.10;6.50;;;;;;5086964;28;21118;-80
2022/03/03 12:37:45;;;;;;;15.37;11.20;;;16.20;6.40;;;;;;5084912;28;20495;-81
2022/03/03 12:40:21;;;;;;;17.10;12.40;;;16.10;17.20;;;;;;5088920;28;20454;-80
2022/03/03 12:42:49;;;;;;;18.40;11.63;;;16.10;5.40;;;;;;5093130;28;20444;-81
2022/03/03 12:45:19;;;;;;;15.85;11.90;;;16.00;4.90;;;;;;5084040;28;20454;-80
2022/03/03 12:47:49;;;;;;;13.83;10.53;;;16.10;5.60;;;;;;5089279;28;20188;-81
2022/03/03 12:50:20;;;;;;;14.47;10.03;;;16.20;7.70;;;;;;5082493;28;20464;-80
2022/03/03 12:53:01;;;;;;;13.50;11.17;;;16.30;7.10;;;;;;5087653;28;20999;-80
2022/03/03 12:55:32;;;;;;;20.47;11.53;;;16.40;8.20;;;;;;5082823;28;20480;-81
2022/03/03 12:58:01;;;;;;;15.13;10.07;;;16.50;9.90;;;;;;5079521;28;20455;-80
2022/03/03 13:00:34;;;;;;;15.40;11.07;;;16.60;10.90;;;;;;5085549;28;20464;-81
2022/03/03 13:03:05;;;;;;;13.37;9.83;;;16.60;10.10;;;;;;5082345;28;20487;-80
2022/03/03 13:05:40;;;;;;;15.13;10.10;;;16.70;10.80;;;;;;5090593;28;20950;-80